JST518 YMML-YMLT
Flight info
| Callsign | JST518 |
|---|---|
| Flight time | 0h 47m |
| Altitude | 33000 |
| Route | ML H169 IRSOM W105 LT |
| Aircraft | A321/M-SDE3FGHIRWY/LB1 |
Departure
| Time | 2026-04-17 00:15 |
|---|---|
| Airport | Melbourne Airport (YMML) |
Arrival
| Time | 2026-04-17 01:02 |
|---|---|
| Airport | Launceston Airport (YMLT) |
| Time | Latitude | Longitude | Altitude | Speed | Heading |
|---|---|---|---|---|---|
| 2026-04-17 00:03 | -37.67265 | 144.84612 | 385 ft | 3 kts | 172° |
| 2026-04-17 00:06 | -37.67253 | 144.84610 | 386 ft | 9 kts | 175° |
| 2026-04-17 00:06 | -37.67227 | 144.84610 | 386 ft | 9 kts | 191° |
| 2026-04-17 00:07 | -37.67204 | 144.84621 | 387 ft | 5 kts | 234° |
| 2026-04-17 00:07 | -37.67199 | 144.84634 | 387 ft | 4 kts | 262° |
| 2026-04-17 00:09 | -37.67199 | 144.84631 | 387 ft | 2 kts | 262° |
| 2026-04-17 00:09 | -37.67202 | 144.84603 | 386 ft | 5 kts | 262° |
| 2026-04-17 00:10 | -37.67210 | 144.84536 | 385 ft | 11 kts | 263° |
| 2026-04-17 00:10 | -37.67199 | 144.84415 | 384 ft | 17 kts | 270° |
| 2026-04-17 00:10 | -37.67180 | 144.84275 | 382 ft | 17 kts | 322° |
| 2026-04-17 00:10 | -37.67063 | 144.84243 | 385 ft | 17 kts | 352° |
| 2026-04-17 00:11 | -37.66946 | 144.84222 | 387 ft | 17 kts | 351° |
| 2026-04-17 00:11 | -37.66834 | 144.84200 | 391 ft | 16 kts | 351° |
| 2026-04-17 00:11 | -37.66731 | 144.84181 | 393 ft | 14 kts | 351° |
| 2026-04-17 00:11 | -37.66640 | 144.84163 | 399 ft | 12 kts | 354° |
| 2026-04-17 00:12 | -37.66570 | 144.84197 | 399 ft | 10 kts | 37° |
| 2026-04-17 00:12 | -37.66534 | 144.84275 | 403 ft | 11 kts | 73° |
| 2026-04-17 00:12 | -37.66518 | 144.84382 | 404 ft | 14 kts | 84° |
| 2026-04-17 00:12 | -37.66504 | 144.84507 | 405 ft | 15 kts | 81° |
| 2026-04-17 00:13 | -37.66489 | 144.84636 | 407 ft | 14 kts | 81° |
| 2026-04-17 00:13 | -37.66447 | 144.84750 | 409 ft | 15 kts | 40° |
| 2026-04-17 00:13 | -37.66366 | 144.84785 | 411 ft | 8 kts | 5° |
| 2026-04-17 00:13 | -37.66312 | 144.84789 | 412 ft | 8 kts | 3° |
| 2026-04-17 00:14 | -37.66258 | 144.84793 | 413 ft | 8 kts | 3° |
| 2026-04-17 00:14 | -37.66224 | 144.84756 | 413 ft | 5 kts | 277° |
| 2026-04-17 00:14 | -37.66223 | 144.84736 | 413 ft | 0 kts | 275° |
| 2026-04-17 00:15 | -37.66221 | 144.84716 | 413 ft | 11 kts | 275° |
| 2026-04-17 00:15 | -37.66197 | 144.84300 | 410 ft | 85 kts | 275° |
| 2026-04-17 00:15 | -37.66138 | 144.83268 | 464 ft | 140 kts | 271° |
| 2026-04-17 00:15 | -37.66057 | 144.82079 | 1173 ft | 138 kts | 271° |
| 2026-04-17 00:16 | -37.65986 | 144.80844 | 1905 ft | 141 kts | 266° |
| 2026-04-17 00:16 | -37.65916 | 144.79558 | 2486 ft | 156 kts | 267° |
| 2026-04-17 00:16 | -37.65840 | 144.78094 | 2958 ft | 179 kts | 268° |
| 2026-04-17 00:16 | -37.65752 | 144.76455 | 3446 ft | 201 kts | 269° |
| 2026-04-17 00:17 | -37.65648 | 144.74589 | 3879 ft | 227 kts | 269° |
| 2026-04-17 00:17 | -37.65531 | 144.72500 | 4563 ft | 246 kts | 268° |
| 2026-04-17 00:17 | -37.65640 | 144.70319 | 5279 ft | 248 kts | 248° |
| 2026-04-17 00:17 | -37.66607 | 144.68506 | 5630 ft | 264 kts | 217° |
| 2026-04-17 00:18 | -37.68206 | 144.67175 | 6034 ft | 284 kts | 212° |
| 2026-04-17 00:18 | -37.69946 | 144.65826 | 6706 ft | 295 kts | 212° |
| 2026-04-17 00:18 | -37.71726 | 144.64561 | 7455 ft | 300 kts | 203° |
| 2026-04-17 00:18 | -37.73788 | 144.64057 | 8245 ft | 308 kts | 182° |
| 2026-04-17 00:19 | -37.75912 | 144.64629 | 9013 ft | 321 kts | 160° |
| 2026-04-17 00:19 | -37.77907 | 144.66044 | 9823 ft | 327 kts | 154° |
| 2026-04-17 00:19 | -37.79849 | 144.67508 | 10530 ft | 331 kts | 154° |
| 2026-04-17 00:19 | -37.81843 | 144.69018 | 11213 ft | 337 kts | 155° |
| 2026-04-17 00:20 | -37.83867 | 144.70549 | 11897 ft | 341 kts | 155° |
| 2026-04-17 00:20 | -37.85920 | 144.72099 | 12578 ft | 346 kts | 156° |
| 2026-04-17 00:20 | -37.88006 | 144.73669 | 13252 ft | 351 kts | 156° |
| 2026-04-17 00:20 | -37.90123 | 144.75257 | 13924 ft | 356 kts | 157° |
| 2026-04-17 00:21 | -37.92269 | 144.76862 | 14554 ft | 360 kts | 157° |
| 2026-04-17 00:21 | -37.94437 | 144.78489 | 15161 ft | 364 kts | 157° |
| 2026-04-17 00:21 | -37.96626 | 144.80137 | 15770 ft | 369 kts | 157° |
| 2026-04-17 00:21 | -37.98853 | 144.81813 | 16377 ft | 374 kts | 158° |
| 2026-04-17 00:22 | -38.03376 | 144.85227 | 17601 ft | 383 kts | 158° |
| 2026-04-17 00:22 | -38.05681 | 144.86969 | 18196 ft | 388 kts | 158° |
| 2026-04-17 00:22 | -38.08005 | 144.88733 | 18744 ft | 392 kts | 158° |
| 2026-04-17 00:23 | -38.10357 | 144.90525 | 19301 ft | 397 kts | 158° |
| 2026-04-17 00:23 | -38.12734 | 144.92345 | 19876 ft | 400 kts | 158° |
| 2026-04-17 00:23 | -38.15127 | 144.94182 | 20483 ft | 403 kts | 158° |
| 2026-04-17 00:23 | -38.17533 | 144.96032 | 21145 ft | 405 kts | 158° |
| 2026-04-17 00:24 | -38.19950 | 144.97879 | 21797 ft | 405 kts | 159° |
| 2026-04-17 00:24 | -38.22373 | 144.99717 | 22460 ft | 406 kts | 159° |
| 2026-04-17 00:24 | -38.24819 | 145.01551 | 22836 ft | 415 kts | 159° |
| 2026-04-17 00:24 | -38.27371 | 145.03414 | 22946 ft | 428 kts | 160° |
| 2026-04-17 00:25 | -38.29972 | 145.05306 | 23414 ft | 432 kts | 160° |
| 2026-04-17 00:25 | -38.32592 | 145.07201 | 23939 ft | 434 kts | 160° |
| 2026-04-17 00:25 | -38.35213 | 145.09124 | 24394 ft | 436 kts | 159° |
| 2026-04-17 00:25 | -38.37850 | 145.11075 | 24748 ft | 441 kts | 159° |
| 2026-04-17 00:26 | -38.40529 | 145.13031 | 25048 ft | 446 kts | 160° |
| 2026-04-17 00:26 | -38.43248 | 145.14983 | 25455 ft | 449 kts | 160° |
| 2026-04-17 00:26 | -38.45970 | 145.16914 | 25963 ft | 448 kts | 160° |
| 2026-04-17 00:26 | -38.48698 | 145.18831 | 26461 ft | 448 kts | 161° |
| 2026-04-17 00:27 | -38.51448 | 145.20742 | 26778 ft | 453 kts | 161° |
| 2026-04-17 00:27 | -38.54244 | 145.22665 | 26974 ft | 460 kts | 161° |
| 2026-04-17 00:27 | -38.57072 | 145.24638 | 27264 ft | 465 kts | 160° |
| 2026-04-17 00:27 | -38.59904 | 145.26652 | 27728 ft | 466 kts | 160° |
| 2026-04-17 00:28 | -38.62731 | 145.28689 | 28166 ft | 467 kts | 160° |
| 2026-04-17 00:28 | -38.65541 | 145.30715 | 28441 ft | 472 kts | 160° |
| 2026-04-17 00:28 | -38.68421 | 145.32785 | 28674 ft | 478 kts | 159° |
| 2026-04-17 00:28 | -38.71345 | 145.34815 | 28983 ft | 475 kts | 165° |
| 2026-04-17 00:29 | -38.74400 | 145.36416 | 29229 ft | 474 kts | 168° |
| 2026-04-17 00:29 | -38.77486 | 145.37893 | 29675 ft | 474 kts | 168° |
| 2026-04-17 00:29 | -38.80566 | 145.39376 | 30151 ft | 473 kts | 168° |
| 2026-04-17 00:29 | -38.83654 | 145.40865 | 30443 ft | 475 kts | 169° |
| 2026-04-17 00:30 | -38.86786 | 145.42255 | 30591 ft | 477 kts | 171° |
| 2026-04-17 00:30 | -38.89965 | 145.43504 | 30713 ft | 479 kts | 173° |
| 2026-04-17 00:30 | -38.93180 | 145.44629 | 30996 ft | 477 kts | 174° |
| 2026-04-17 00:30 | -38.96391 | 145.45640 | 31373 ft | 473 kts | 175° |
| 2026-04-17 00:31 | -38.99591 | 145.46555 | 31759 ft | 469 kts | 177° |
| 2026-04-17 00:31 | -39.02777 | 145.47390 | 32154 ft | 466 kts | 178° |
| 2026-04-17 00:31 | -39.05948 | 145.48195 | 32553 ft | 463 kts | 178° |
| 2026-04-17 00:31 | -39.09088 | 145.49126 | 32955 ft | 466 kts | 174° |
| 2026-04-17 00:32 | -39.12209 | 145.50310 | 33101 ft | 469 kts | 171° |
| 2026-04-17 00:32 | -39.15302 | 145.51672 | 33093 ft | 470 kts | 169° |
| 2026-04-17 00:32 | -39.21440 | 145.54577 | 33087 ft | 469 kts | 168° |
| 2026-04-17 00:33 | -39.27592 | 145.57350 | 33092 ft | 467 kts | 170° |
| 2026-04-17 00:33 | -39.33761 | 145.59931 | 33090 ft | 466 kts | 171° |
| 2026-04-17 00:34 | -39.39751 | 145.63408 | 33081 ft | 472 kts | 161° |
| 2026-04-17 00:34 | -39.45532 | 145.67273 | 33084 ft | 466 kts | 161° |
| 2026-04-17 00:35 | -39.51279 | 145.71118 | 33076 ft | 465 kts | 161° |
| 2026-04-17 00:35 | -39.57021 | 145.74964 | 33079 ft | 464 kts | 161° |
| 2026-04-17 00:36 | -39.62710 | 145.78789 | 33068 ft | 463 kts | 160° |
| 2026-04-17 00:36 | -39.68432 | 145.82644 | 33067 ft | 464 kts | 160° |
| 2026-04-17 00:37 | -39.74162 | 145.86504 | 33078 ft | 464 kts | 160° |
| 2026-04-17 00:37 | -39.79895 | 145.90373 | 33097 ft | 464 kts | 160° |
| 2026-04-17 00:38 | -39.85623 | 145.94240 | 33099 ft | 464 kts | 159° |
| 2026-04-17 00:38 | -39.91340 | 145.98124 | 33084 ft | 463 kts | 159° |
| 2026-04-17 00:39 | -39.97036 | 146.02012 | 33081 ft | 461 kts | 159° |
| 2026-04-17 00:39 | -40.02722 | 146.05887 | 33084 ft | 461 kts | 159° |
| 2026-04-17 00:40 | -40.08405 | 146.09752 | 33080 ft | 460 kts | 159° |
| 2026-04-17 00:40 | -40.14070 | 146.13619 | 33072 ft | 458 kts | 159° |
| 2026-04-17 00:41 | -40.19714 | 146.17480 | 33069 ft | 457 kts | 159° |
| 2026-04-17 00:41 | -40.25340 | 146.21337 | 33006 ft | 457 kts | 159° |
| 2026-04-17 00:42 | -40.28152 | 146.23268 | 32734 ft | 456 kts | 159° |
| 2026-04-17 00:42 | -40.30949 | 146.25193 | 32338 ft | 452 kts | 159° |
| 2026-04-17 00:42 | -40.33728 | 146.27109 | 31767 ft | 450 kts | 158° |
| 2026-04-17 00:42 | -40.36493 | 146.29016 | 31193 ft | 448 kts | 158° |
| 2026-04-17 00:43 | -40.39246 | 146.30916 | 30616 ft | 446 kts | 158° |
| 2026-04-17 00:43 | -40.41983 | 146.32810 | 30037 ft | 444 kts | 157° |
| 2026-04-17 00:43 | -40.44704 | 146.34692 | 29405 ft | 440 kts | 157° |
| 2026-04-17 00:43 | -40.47392 | 146.36554 | 28847 ft | 434 kts | 157° |
| 2026-04-17 00:44 | -40.50047 | 146.38392 | 28290 ft | 429 kts | 157° |
| 2026-04-17 00:44 | -40.52671 | 146.40209 | 27725 ft | 424 kts | 157° |
| 2026-04-17 00:44 | -40.55259 | 146.42000 | 27197 ft | 419 kts | 157° |
| 2026-04-17 00:44 | -40.57825 | 146.43776 | 26643 ft | 414 kts | 156° |
| 2026-04-17 00:45 | -40.60360 | 146.45534 | 26099 ft | 409 kts | 156° |
| 2026-04-17 00:45 | -40.62863 | 146.47270 | 25579 ft | 404 kts | 156° |
| 2026-04-17 00:45 | -40.65335 | 146.48986 | 25062 ft | 399 kts | 156° |
| 2026-04-17 00:45 | -40.67775 | 146.50687 | 24553 ft | 394 kts | 156° |
| 2026-04-17 00:46 | -40.70185 | 146.52370 | 24068 ft | 389 kts | 156° |
| 2026-04-17 00:46 | -40.72564 | 146.54033 | 23582 ft | 385 kts | 156° |
| 2026-04-17 00:46 | -40.74916 | 146.55675 | 23077 ft | 380 kts | 156° |
| 2026-04-17 00:46 | -40.77234 | 146.57297 | 22615 ft | 374 kts | 156° |
| 2026-04-17 00:47 | -40.79518 | 146.58900 | 22176 ft | 369 kts | 156° |
| 2026-04-17 00:47 | -40.81773 | 146.60478 | 21740 ft | 365 kts | 156° |
| 2026-04-17 00:47 | -40.84000 | 146.62035 | 21319 ft | 360 kts | 156° |
| 2026-04-17 00:47 | -40.86197 | 146.63570 | 20904 ft | 355 kts | 156° |
| 2026-04-17 00:48 | -40.88366 | 146.65083 | 20486 ft | 350 kts | 156° |
| 2026-04-17 00:48 | -40.90501 | 146.66574 | 20047 ft | 346 kts | 156° |
| 2026-04-17 00:48 | -40.92615 | 146.68054 | 19611 ft | 341 kts | 156° |
| 2026-04-17 00:48 | -40.94701 | 146.69521 | 19201 ft | 338 kts | 156° |
| 2026-04-17 00:49 | -40.96769 | 146.70979 | 18767 ft | 335 kts | 156° |
| 2026-04-17 00:49 | -40.98791 | 146.72400 | 18332 ft | 332 kts | 156° |
| 2026-04-17 00:49 | -41.00825 | 146.73830 | 17852 ft | 329 kts | 156° |
| 2026-04-17 00:49 | -41.02836 | 146.75247 | 17413 ft | 325 kts | 156° |
| 2026-04-17 00:50 | -41.04821 | 146.76647 | 16974 ft | 322 kts | 156° |
| 2026-04-17 00:50 | -41.06757 | 146.78110 | 16703 ft | 320 kts | 152° |
| 2026-04-17 00:50 | -41.08626 | 146.79732 | 16618 ft | 322 kts | 150° |
| 2026-04-17 00:50 | -41.10480 | 146.81394 | 16480 ft | 322 kts | 150° |
| 2026-04-17 00:51 | -41.12338 | 146.83078 | 15617 ft | 322 kts | 150° |
| 2026-04-17 00:51 | -41.14163 | 146.84744 | 14762 ft | 315 kts | 150° |
| 2026-04-17 00:51 | -41.15953 | 146.86379 | 13940 ft | 310 kts | 150° |
| 2026-04-17 00:51 | -41.17706 | 146.87976 | 13279 ft | 299 kts | 150° |
| 2026-04-17 00:52 | -41.18846 | 146.89015 | 12793 ft | 292 kts | 150° |
| 2026-04-17 00:52 | -41.21047 | 146.91012 | 11723 ft | 286 kts | 151° |
| 2026-04-17 00:52 | -41.22686 | 146.92493 | 10910 ft | 284 kts | 152° |
| 2026-04-17 00:52 | -41.23762 | 146.93465 | 10400 ft | 282 kts | 152° |
| 2026-04-17 00:53 | -41.25375 | 146.94922 | 9711 ft | 276 kts | 152° |
| 2026-04-17 00:53 | -41.26944 | 146.96344 | 9408 ft | 275 kts | 152° |
| 2026-04-17 00:53 | -41.28535 | 146.97780 | 9048 ft | 276 kts | 152° |
| 2026-04-17 00:53 | -41.30113 | 146.99208 | 8685 ft | 274 kts | 152° |
| 2026-04-17 00:54 | -41.31702 | 147.00647 | 8319 ft | 276 kts | 152° |
| 2026-04-17 00:54 | -41.33285 | 147.02083 | 7950 ft | 274 kts | 152° |
| 2026-04-17 00:54 | -41.34855 | 147.03510 | 7586 ft | 272 kts | 151° |
| 2026-04-17 00:54 | -41.36413 | 147.04927 | 7227 ft | 271 kts | 151° |
| 2026-04-17 00:55 | -41.37964 | 147.06338 | 6864 ft | 270 kts | 151° |
| 2026-04-17 00:55 | -41.39509 | 147.07744 | 6512 ft | 268 kts | 151° |
| 2026-04-17 00:55 | -41.41047 | 147.09145 | 6141 ft | 268 kts | 151° |
| 2026-04-17 00:55 | -41.42582 | 147.10544 | 5809 ft | 266 kts | 151° |
| 2026-04-17 00:56 | -41.44111 | 147.11936 | 5422 ft | 266 kts | 150° |
| 2026-04-17 00:56 | -41.45649 | 147.13243 | 5025 ft | 258 kts | 156° |
| 2026-04-17 00:56 | -41.47261 | 147.14175 | 4585 ft | 245 kts | 169° |
| 2026-04-17 00:56 | -41.48885 | 147.14467 | 4121 ft | 228 kts | 186° |
| 2026-04-17 00:57 | -41.50414 | 147.14325 | 3730 ft | 212 kts | 187° |
| 2026-04-17 00:57 | -41.51897 | 147.14304 | 3391 ft | 215 kts | 181° |
| 2026-04-17 00:57 | -41.53385 | 147.14529 | 3119 ft | 216 kts | 175° |
| 2026-04-17 00:57 | -41.54862 | 147.14917 | 2841 ft | 217 kts | 172° |
| 2026-04-17 00:58 | -41.56327 | 147.15428 | 2592 ft | 224 kts | 165° |
| 2026-04-17 00:58 | -41.57771 | 147.16148 | 2677 ft | 221 kts | 164° |
| 2026-04-17 00:58 | -41.59212 | 147.16892 | 3153 ft | 226 kts | 162° |
| 2026-04-17 00:58 | -41.60677 | 147.17825 | 3461 ft | 235 kts | 156° |
| 2026-04-17 00:59 | -41.62006 | 147.18972 | 3371 ft | 222 kts | 149° |
| 2026-04-17 00:59 | -41.63160 | 147.20299 | 3172 ft | 217 kts | 137° |
| 2026-04-17 00:59 | -41.63931 | 147.21994 | 2956 ft | 213 kts | 115° |
| 2026-04-17 00:59 | -41.64091 | 147.23918 | 2653 ft | 211 kts | 84° |
| 2026-04-17 01:00 | -41.63469 | 147.25668 | 2234 ft | 210 kts | 45° |
| 2026-04-17 01:00 | -41.62245 | 147.26497 | 2016 ft | 191 kts | 1° |
| 2026-04-17 01:00 | -41.61046 | 147.26178 | 1856 ft | 169 kts | 334° |
| 2026-04-17 01:00 | -41.59969 | 147.25643 | 1737 ft | 158 kts | 329° |
| 2026-04-17 01:01 | -41.59033 | 147.24994 | 1591 ft | 148 kts | 323° |
| 2026-04-17 01:01 | -41.58178 | 147.24273 | 1365 ft | 143 kts | 322° |
| 2026-04-17 01:01 | -41.57388 | 147.23538 | 1207 ft | 139 kts | 319° |
| 2026-04-17 01:01 | -41.56557 | 147.22846 | 986 ft | 139 kts | 323° |
| 2026-04-17 01:02 | -41.55728 | 147.22157 | 757 ft | 139 kts | 322° |
| 2026-04-17 01:02 | -41.54941 | 147.21469 | 598 ft | 135 kts | 323° |
| 2026-04-17 01:02 | -41.54244 | 147.20861 | 593 ft | 103 kts | 327° |
| 2026-04-17 01:02 | -41.53828 | 147.20514 | 593 ft | 29 kts | 329° |
| 2026-04-17 01:03 | -41.53778 | 147.20476 | 595 ft | 0 kts | 330° |